createdAt,value
2018-09-17T04:00:36.668Z,0.00
2018-09-17T04:01:36.633Z,0.00
2018-09-17T04:02:36.655Z,0.00
2018-09-17T04:03:36.611Z,0.00
2018-09-17T04:04:36.599Z,0.00
2018-09-17T04:05:36.636Z,0.00
2018-09-17T04:06:36.578Z,0.00
2018-09-17T04:07:36.568Z,0.00
2018-09-17T04:08:36.554Z,0.00
2018-09-17T04:09:36.543Z,0.00
2018-09-17T04:10:36.560Z,0.00
2018-09-17T04:11:36.526Z,0.00
2018-09-17T04:12:36.511Z,0.00
2018-09-17T04:13:36.501Z,0.00
2018-09-17T04:14:36.484Z,0.00
2018-09-17T04:15:36.482Z,0.00
2018-09-17T04:16:36.481Z,0.00
2018-09-17T04:17:36.459Z,0.00
2018-09-17T04:18:36.442Z,0.00
2018-09-17T04:19:36.429Z,0.00
2018-09-17T04:20:36.431Z,0.00
2018-09-17T04:21:36.407Z,0.00
2018-09-17T04:22:36.395Z,0.00
2018-09-17T04:23:36.391Z,0.00
2018-09-17T04:24:36.380Z,0.00
2018-09-17T04:25:36.369Z,0.00
2018-09-17T04:26:36.348Z,0.00
2018-09-17T04:27:36.372Z,0.00
2018-09-17T04:28:36.325Z,0.00
2018-09-17T04:29:36.341Z,0.00
2018-09-17T04:30:36.325Z,0.00
2018-09-17T04:31:36.363Z,0.00
2018-09-17T04:32:36.279Z,0.00
2018-09-17T04:33:36.269Z,0.00
2018-09-17T04:34:36.255Z,0.00
2018-09-17T04:35:36.271Z,0.00
2018-09-17T04:36:36.233Z,0.00
2018-09-17T04:37:36.221Z,0.00
2018-09-17T04:38:36.211Z,0.00
2018-09-17T04:39:36.204Z,0.00
2018-09-17T04:40:36.198Z,0.00
2018-09-17T04:41:36.209Z,0.00
2018-09-17T04:42:36.164Z,0.00
2018-09-17T04:43:36.152Z,0.00
2018-09-17T04:44:36.141Z,0.00
2018-09-17T04:45:36.143Z,0.00
2018-09-17T04:46:36.127Z,0.00
2018-09-17T04:47:36.106Z,0.00
2018-09-17T04:48:36.097Z,0.00
2018-09-17T04:49:36.105Z,0.00
2018-09-17T04:50:36.081Z,0.00
2018-09-17T04:51:36.061Z,0.00
2018-09-17T04:52:36.054Z,0.00
2018-09-17T04:53:36.040Z,0.00
2018-09-17T04:54:36.026Z,0.00
2018-09-17T04:55:36.025Z,0.00
2018-09-17T04:56:36.000Z,5.62
2018-09-17T04:57:35.988Z,5.62
2018-09-17T04:58:35.978Z,5.62
2018-09-17T04:59:35.968Z,5.62
2018-09-17T05:00:35.963Z,5.62
2018-09-17T05:01:35.995Z,5.62
2018-09-17T05:02:35.929Z,5.62
2018-09-17T05:03:35.926Z,5.62
2018-09-17T05:04:35.908Z,5.62
2018-09-17T05:05:35.910Z,5.62
2018-09-17T05:06:35.919Z,5.62
2018-09-17T05:07:35.871Z,11.25
2018-09-17T05:08:35.860Z,11.25
2018-09-17T05:09:35.851Z,11.25
2018-09-17T05:10:35.854Z,11.25
2018-09-17T05:11:35.830Z,11.25
2018-09-17T05:12:35.814Z,11.25
2018-09-17T05:13:35.802Z,11.25
2018-09-17T05:14:35.800Z,11.25
2018-09-17T05:15:35.820Z,16.88
2018-09-17T05:16:35.774Z,16.88
2018-09-17T05:17:35.775Z,16.88
2018-09-17T05:18:35.747Z,16.88
2018-09-17T05:19:35.741Z,16.88
2018-09-17T05:20:35.796Z,16.88
2018-09-17T05:21:35.713Z,16.88
2018-09-17T05:22:35.706Z,16.88
2018-09-17T05:23:35.703Z,22.50
2018-09-17T05:24:35.678Z,22.50
2018-09-17T05:25:35.688Z,22.50
2018-09-17T05:26:35.655Z,22.50
2018-09-17T05:27:35.651Z,22.50
2018-09-17T05:28:35.642Z,22.50
2018-09-17T05:29:35.621Z,22.50
2018-09-17T05:30:35.624Z,28.12
2018-09-17T05:31:35.600Z,28.12
2018-09-17T05:32:35.591Z,28.12
2018-09-17T05:33:35.577Z,28.12
2018-09-17T05:34:35.570Z,28.12
2018-09-17T05:35:35.564Z,28.12
2018-09-17T05:36:35.546Z,28.12
2018-09-17T05:37:35.540Z,28.12
2018-09-17T05:38:35.527Z,33.75
2018-09-17T05:39:35.505Z,33.75
2018-09-17T05:40:35.494Z,33.75
2018-09-17T05:41:35.491Z,33.75
2018-09-17T05:42:35.471Z,33.75
2018-09-17T05:43:35.473Z,33.75
2018-09-17T05:44:35.480Z,33.75
2018-09-17T05:45:35.435Z,39.38
2018-09-17T05:46:35.425Z,39.38
2018-09-17T05:47:35.410Z,39.38
2018-09-17T05:48:35.429Z,39.38
2018-09-17T05:49:35.431Z,39.38
2018-09-17T05:50:35.380Z,39.38
2018-09-17T05:51:35.368Z,39.38
2018-09-17T05:52:35.360Z,45.00
2018-09-17T05:53:35.344Z,45.00
2018-09-17T05:54:35.353Z,45.00
2018-09-17T05:55:35.329Z,45.00
2018-09-17T05:56:35.314Z,45.00
2018-09-17T05:57:35.297Z,45.00
2018-09-17T05:58:35.286Z,45.00
2018-09-17T05:59:35.333Z,45.00
2018-09-17T06:00:35.263Z,50.62
2018-09-17T06:01:35.258Z,50.62
2018-09-17T06:02:35.237Z,50.62
2018-09-17T06:03:35.232Z,50.62
2018-09-17T06:04:35.288Z,50.62
2018-09-17T06:05:35.261Z,50.62
2018-09-17T06:06:35.192Z,50.62
2018-09-17T06:07:35.203Z,56.25
2018-09-17T06:08:35.175Z,56.25
2018-09-17T06:09:35.191Z,56.25
2018-09-17T06:10:35.150Z,56.25
2018-09-17T06:11:35.139Z,56.25
2018-09-17T06:12:35.127Z,56.25
2018-09-17T06:13:35.122Z,56.25
2018-09-17T06:14:35.171Z,56.25
2018-09-17T06:15:35.095Z,61.88
2018-09-17T06:16:35.081Z,61.88
2018-09-17T06:17:35.074Z,61.88
2018-09-17T06:18:35.114Z,61.88
2018-09-17T06:19:35.058Z,61.88
2018-09-17T06:20:35.043Z,61.88
2018-09-17T06:21:35.066Z,61.88
2018-09-17T06:22:35.039Z,61.88
2018-09-17T06:23:35.011Z,67.50
2018-09-17T06:24:35.003Z,67.50
2018-09-17T06:25:34.991Z,67.50
2018-09-17T06:26:35.050Z,67.50
2018-09-17T06:27:34.976Z,67.50
2018-09-17T06:28:34.962Z,67.50
2018-09-17T06:29:34.954Z,67.50
2018-09-17T06:30:34.967Z,67.50
2018-09-17T06:31:34.921Z,73.12
2018-09-17T06:32:34.903Z,73.12
2018-09-17T06:33:34.897Z,73.12
2018-09-17T06:34:34.896Z,73.12
2018-09-17T06:35:34.875Z,73.12
2018-09-17T06:36:34.868Z,73.12
2018-09-17T06:37:34.888Z,73.12
2018-09-17T06:38:34.841Z,78.75
2018-09-17T06:39:34.846Z,78.75
2018-09-17T06:40:34.856Z,78.75
2018-09-17T06:41:34.840Z,78.75
2018-09-17T06:42:34.838Z,78.75
2018-09-17T06:43:34.804Z,78.75
2018-09-17T06:44:34.797Z,78.75
2018-09-17T06:45:34.759Z,84.38
2018-09-17T06:46:34.787Z,84.38
2018-09-17T06:47:34.736Z,84.38
2018-09-17T06:48:34.728Z,84.38
2018-09-17T06:49:34.735Z,90.00
2018-09-17T06:50:34.707Z,123.75
2018-09-17T06:51:34.689Z,174.38
2018-09-17T06:52:34.681Z,191.25
2018-09-17T06:53:34.696Z,208.12
2018-09-17T06:54:34.668Z,208.12
2018-09-17T06:55:34.664Z,208.12
2018-09-17T06:56:34.633Z,213.75
2018-09-17T06:57:34.625Z,213.75
2018-09-17T06:58:34.615Z,219.38
2018-09-17T06:59:34.623Z,219.38
2018-09-17T07:00:34.589Z,219.38
2018-09-17T07:01:34.581Z,219.38
2018-09-17T07:02:34.571Z,225.00
2018-09-17T07:03:34.557Z,225.00
2018-09-17T07:04:34.550Z,225.00
2018-09-17T07:05:34.529Z,230.62
2018-09-17T07:06:34.518Z,236.25
2018-09-17T07:07:34.507Z,241.88
2018-09-17T07:08:34.496Z,241.88
2018-09-17T07:09:34.507Z,241.88
2018-09-17T07:10:34.472Z,247.50
2018-09-17T07:11:34.503Z,247.50
2018-09-17T07:12:34.447Z,247.50
2018-09-17T07:13:34.436Z,247.50
2018-09-17T07:14:34.436Z,247.50
2018-09-17T07:15:34.413Z,247.50
2018-09-17T07:16:34.402Z,247.50
2018-09-17T07:17:34.389Z,253.12
2018-09-17T07:18:34.381Z,253.12
2018-09-17T07:19:34.455Z,258.75
2018-09-17T07:20:34.357Z,258.75
2018-09-17T07:21:34.343Z,258.75
2018-09-17T07:22:34.410Z,264.38
2018-09-17T07:23:34.321Z,270.00
2018-09-17T07:24:34.499Z,270.00
2018-09-17T07:25:34.299Z,270.00
2018-09-17T07:26:34.296Z,275.62
2018-09-17T07:27:34.286Z,275.62
2018-09-17T07:28:34.265Z,281.25
2018-09-17T07:29:34.270Z,281.25
2018-09-17T07:30:34.241Z,281.25
2018-09-17T07:31:34.231Z,286.88
2018-09-17T07:32:34.253Z,281.25
2018-09-17T07:33:34.209Z,286.88
2018-09-17T07:34:34.207Z,292.50
2018-09-17T07:35:34.414Z,286.88
2018-09-17T07:36:34.215Z,292.50
2018-09-17T07:37:34.201Z,292.50
2018-09-17T07:38:34.152Z,298.12
2018-09-17T07:39:34.157Z,298.12
2018-09-17T07:40:34.131Z,309.38
2018-09-17T07:41:34.130Z,309.38
2018-09-17T07:42:34.110Z,315.00
2018-09-17T07:43:34.096Z,315.00
2018-09-17T07:44:34.142Z,315.00
2018-09-17T07:45:34.078Z,320.62
2018-09-17T07:46:34.064Z,326.25
2018-09-17T07:47:34.052Z,326.25
2018-09-17T07:48:34.039Z,326.25
2018-09-17T07:49:34.030Z,331.88
2018-09-17T07:50:34.031Z,331.88
2018-09-17T07:51:34.013Z,331.88
2018-09-17T07:52:33.993Z,331.88
2018-09-17T07:53:33.986Z,331.88
2018-09-17T07:54:33.974Z,337.50
2018-09-17T07:55:34.007Z,337.50
2018-09-17T07:56:33.957Z,343.12
2018-09-17T07:57:33.935Z,343.12
2018-09-17T07:58:33.926Z,348.75
2018-09-17T07:59:33.915Z,348.75
2018-09-17T08:00:33.915Z,348.75
2018-09-17T08:01:33.898Z,348.75
2018-09-17T08:02:33.879Z,348.75
2018-09-17T08:03:33.894Z,354.38
2018-09-17T08:04:33.872Z,354.38
2018-09-17T08:05:33.887Z,360.00
2018-09-17T08:06:33.838Z,365.62
2018-09-17T08:07:33.826Z,371.25
2018-09-17T08:08:33.814Z,376.88
2018-09-17T08:09:33.803Z,376.88
2018-09-17T08:10:33.812Z,438.75
2018-09-17T08:11:33.777Z,506.25
2018-09-17T08:12:33.767Z,540.00
2018-09-17T08:13:33.755Z,601.88
2018-09-17T08:14:33.744Z,618.75
2018-09-17T08:15:33.746Z,635.62
2018-09-17T08:16:33.723Z,646.88
2018-09-17T08:17:33.712Z,675.00
2018-09-17T08:18:33.700Z,703.12
2018-09-17T08:19:33.726Z,832.50
2018-09-17T08:20:33.694Z,1220.62
2018-09-17T08:21:33.670Z,1501.88
2018-09-17T08:22:33.656Z,1620.00
2018-09-17T08:23:33.646Z,1693.12
2018-09-17T08:24:33.667Z,1653.75
2018-09-17T08:25:33.688Z,1569.38
2018-09-17T08:26:33.616Z,1513.12
2018-09-17T08:27:33.598Z,1501.88
2018-09-17T08:28:33.588Z,1524.38
2018-09-17T08:29:33.576Z,1541.25
2018-09-17T08:30:33.584Z,1563.75
2018-09-17T08:31:33.557Z,1591.88
2018-09-17T08:32:33.541Z,1591.88
2018-09-17T08:33:33.531Z,1631.25
2018-09-17T08:34:33.521Z,1636.88
2018-09-17T08:35:33.518Z,1631.25
2018-09-17T08:36:33.502Z,1620.00
2018-09-17T08:37:33.487Z,1411.88
2018-09-17T08:38:33.477Z,967.50
2018-09-17T08:39:33.465Z,641.25
2018-09-17T08:40:33.464Z,562.50
2018-09-17T08:41:33.444Z,534.38
2018-09-17T08:42:33.434Z,506.25
2018-09-17T08:43:33.418Z,534.38
2018-09-17T08:44:33.404Z,703.12
2018-09-17T08:45:33.437Z,928.12
2018-09-17T08:46:33.421Z,984.38
2018-09-17T08:47:33.370Z,967.50
2018-09-17T08:48:33.360Z,945.00
2018-09-17T08:49:33.359Z,978.75
2018-09-17T08:50:33.351Z,1029.38
2018-09-17T08:51:33.327Z,1035.00
2018-09-17T08:52:33.315Z,978.75
2018-09-17T08:53:33.303Z,984.38
2018-09-17T08:54:33.327Z,950.62
2018-09-17T08:55:33.292Z,798.75
2018-09-17T08:56:33.268Z,1035.00
2018-09-17T08:57:33.260Z,1451.25
2018-09-17T08:58:33.248Z,1338.75
2018-09-17T08:59:33.252Z,1074.38
2018-09-17T09:00:33.234Z,736.88
2018-09-17T09:01:33.217Z,517.50
2018-09-17T09:02:33.202Z,495.00
2018-09-17T09:03:33.188Z,506.25
2018-09-17T09:04:33.181Z,517.50
2018-09-17T09:05:33.179Z,489.38
2018-09-17T09:06:33.175Z,461.25
2018-09-17T09:07:33.148Z,433.12
2018-09-17T09:08:33.132Z,416.25
2018-09-17T09:09:33.127Z,450.00
2018-09-17T09:10:33.121Z,421.88
2018-09-17T09:11:33.104Z,410.62
2018-09-17T09:12:33.099Z,365.62
2018-09-17T09:13:33.080Z,331.88
2018-09-17T09:14:33.065Z,309.38
2018-09-17T09:15:33.069Z,281.25
2018-09-17T09:16:33.043Z,264.38
2018-09-17T09:17:33.040Z,213.75
2018-09-17T09:18:33.025Z,191.25
2018-09-17T09:19:33.034Z,208.12
2018-09-17T09:20:33.014Z,196.88
2018-09-17T09:21:32.985Z,196.88
2018-09-17T09:22:32.976Z,202.50
2018-09-17T09:23:32.963Z,191.25
2018-09-17T09:24:32.953Z,174.38
2018-09-17T09:25:32.956Z,174.38
2018-09-17T09:26:32.933Z,236.25
2018-09-17T09:27:32.919Z,258.75
2018-09-17T09:28:32.906Z,292.50
2018-09-17T09:29:32.901Z,241.88
2018-09-17T09:30:32.894Z,247.50
2018-09-17T09:31:32.890Z,247.50
2018-09-17T09:32:32.868Z,247.50
2018-09-17T09:33:32.860Z,270.00
2018-09-17T09:34:32.838Z,551.25
2018-09-17T09:35:32.840Z,247.50
2018-09-17T09:36:32.818Z,331.88
2018-09-17T09:37:32.805Z,331.88
2018-09-17T09:38:32.800Z,320.62
2018-09-17T09:39:32.792Z,315.00
2018-09-17T09:40:32.782Z,315.00
2018-09-17T09:41:32.760Z,326.25
2018-09-17T09:42:32.752Z,320.62
2018-09-17T09:43:32.741Z,298.12
2018-09-17T09:44:32.731Z,281.25
2018-09-17T09:45:32.726Z,264.38
2018-09-17T09:46:32.708Z,247.50
2018-09-17T09:47:32.693Z,236.25
2018-09-17T09:48:32.681Z,230.62
2018-09-17T09:49:32.670Z,225.00
2018-09-17T09:50:32.659Z,225.00
2018-09-17T09:51:32.659Z,230.62
2018-09-17T09:52:32.642Z,230.62
2018-09-17T09:53:32.628Z,230.62
2018-09-17T09:54:32.613Z,236.25
2018-09-17T09:55:32.605Z,236.25
2018-09-17T09:56:32.605Z,230.62
2018-09-17T09:57:32.582Z,230.62
2018-09-17T09:58:32.647Z,225.00
2018-09-17T09:59:32.593Z,236.25
2018-09-17T10:00:32.548Z,247.50
2018-09-17T10:01:32.550Z,253.12
2018-09-17T10:02:32.522Z,241.88
2018-09-17T10:03:32.514Z,225.00
2018-09-17T10:04:32.502Z,258.75
2018-09-17T10:05:32.491Z,241.88
2018-09-17T10:06:32.497Z,247.50
2018-09-17T10:07:32.468Z,247.50
2018-09-17T10:08:32.454Z,270.00
2018-09-17T10:09:32.444Z,247.50
2018-09-17T10:10:32.433Z,230.62
2018-09-17T10:11:32.468Z,202.50
2018-09-17T10:12:32.413Z,163.12
2018-09-17T10:13:32.400Z,151.88
2018-09-17T10:14:32.391Z,151.88
2018-09-17T10:15:32.379Z,191.25
2018-09-17T10:16:32.376Z,213.75
2018-09-17T10:17:32.355Z,219.38
2018-09-17T10:18:32.396Z,225.00
2018-09-17T10:19:32.331Z,230.62
2018-09-17T10:20:32.322Z,225.00
2018-09-17T10:21:32.331Z,236.25
2018-09-17T10:22:32.302Z,247.50
2018-09-17T10:23:32.288Z,258.75
2018-09-17T10:24:32.273Z,258.75
2018-09-17T10:25:32.262Z,258.75
2018-09-17T10:26:32.264Z,253.12
2018-09-17T10:27:32.247Z,270.00
2018-09-17T10:28:32.227Z,292.50
2018-09-17T10:29:32.230Z,286.88
2018-09-17T10:30:32.207Z,270.00
2018-09-17T10:31:32.207Z,258.75
2018-09-17T10:32:32.184Z,247.50
2018-09-17T10:33:32.178Z,241.88
2018-09-17T10:34:32.163Z,225.00
2018-09-17T10:35:32.150Z,230.62
2018-09-17T10:36:32.151Z,219.38
2018-09-17T10:37:32.130Z,213.75
2018-09-17T10:38:32.117Z,213.75
2018-09-17T10:39:32.124Z,213.75
2018-09-17T10:40:32.096Z,208.12
2018-09-17T10:41:32.098Z,208.12
2018-09-17T10:42:32.073Z,208.12
2018-09-17T10:43:32.060Z,219.38
2018-09-17T10:44:32.051Z,219.38
2018-09-17T10:45:32.039Z,236.25
2018-09-17T10:46:32.038Z,241.88
2018-09-17T10:47:32.016Z,236.25
2018-09-17T10:48:32.006Z,236.25
2018-09-17T10:49:31.994Z,219.38
2018-09-17T10:50:31.981Z,202.50
2018-09-17T10:51:31.985Z,185.62
2018-09-17T10:52:31.962Z,180.00
2018-09-17T10:53:31.947Z,191.25
2018-09-17T10:54:31.937Z,196.88
2018-09-17T10:55:31.943Z,191.25
2018-09-17T10:56:31.925Z,174.38
2018-09-17T10:57:31.905Z,163.12
2018-09-17T10:58:31.900Z,157.50
2018-09-17T10:59:31.880Z,163.12
2018-09-17T11:00:31.896Z,157.50
2018-09-17T11:01:31.881Z,157.50
2018-09-17T11:02:31.850Z,157.50
2018-09-17T11:03:31.955Z,163.12
2018-09-17T11:04:31.898Z,163.12
2018-09-17T11:05:31.813Z,168.75
2018-09-17T11:06:32.050Z,163.12
2018-09-17T11:07:31.791Z,163.12
2018-09-17T11:08:31.780Z,157.50
2018-09-17T11:09:31.767Z,151.88
2018-09-17T11:10:31.755Z,151.88
2018-09-17T11:11:31.760Z,151.88
2018-09-17T11:12:31.736Z,146.25
2018-09-17T11:13:31.723Z,146.25
2018-09-17T11:14:31.799Z,146.25
2018-09-17T11:15:31.702Z,146.25
2018-09-17T11:16:31.705Z,146.25
2018-09-17T11:17:31.716Z,146.25
2018-09-17T11:18:31.668Z,146.25
2018-09-17T11:19:31.660Z,140.62
2018-09-17T11:20:31.645Z,140.62
2018-09-17T11:21:31.646Z,140.62
2018-09-17T11:22:31.639Z,135.00
2018-09-17T11:23:31.619Z,135.00
2018-09-17T11:24:31.601Z,129.38
2018-09-17T11:25:31.588Z,129.38
2018-09-17T11:26:31.589Z,123.75
2018-09-17T11:27:31.568Z,123.75
2018-09-17T11:28:31.555Z,123.75
2018-09-17T11:29:31.543Z,123.75
2018-09-17T11:30:31.535Z,123.75
2018-09-17T11:31:31.564Z,123.75
2018-09-17T11:32:31.509Z,118.12
2018-09-17T11:33:31.500Z,123.75
2018-09-17T11:34:31.489Z,118.12
2018-09-17T11:35:31.483Z,118.12
2018-09-17T11:36:31.480Z,118.12
2018-09-17T11:37:31.453Z,118.12
2018-09-17T11:38:31.444Z,118.12
2018-09-17T11:39:31.430Z,118.12
2018-09-17T11:40:31.419Z,118.12
2018-09-17T11:41:31.419Z,118.12
2018-09-17T11:42:31.398Z,123.75
2018-09-17T11:43:31.386Z,112.50
2018-09-17T11:44:31.375Z,112.50
2018-09-17T11:45:31.364Z,112.50
2018-09-17T11:46:31.365Z,112.50
2018-09-17T11:47:31.340Z,112.50
2018-09-17T11:48:31.337Z,112.50
2018-09-17T11:49:31.317Z,112.50
2018-09-17T11:50:31.307Z,112.50
2018-09-17T11:51:31.321Z,112.50
2018-09-17T11:52:31.288Z,112.50
2018-09-17T11:53:31.316Z,112.50
2018-09-17T11:54:31.274Z,112.50
2018-09-17T11:55:31.251Z,106.88
2018-09-17T11:56:31.241Z,112.50
2018-09-17T11:57:31.240Z,106.88
2018-09-17T11:58:31.221Z,106.88
2018-09-17T11:59:31.437Z,106.88
2018-09-17T12:00:31.197Z,106.88
2018-09-17T12:01:31.182Z,106.88
2018-09-17T12:02:31.404Z,106.88
2018-09-17T12:03:31.187Z,112.50
2018-09-17T12:04:31.150Z,106.88
2018-09-17T12:05:31.139Z,106.88
2018-09-17T12:06:31.143Z,106.88
2018-09-17T12:07:31.138Z,106.88
2018-09-17T12:08:31.105Z,106.88
2018-09-17T12:09:31.144Z,106.88
2018-09-17T12:10:31.085Z,106.88
2018-09-17T12:11:31.074Z,101.25
2018-09-17T12:12:31.075Z,106.88
2018-09-17T12:13:31.049Z,101.25
2018-09-17T12:14:31.039Z,101.25
2018-09-17T12:15:31.407Z,101.25
2018-09-17T12:16:31.016Z,101.25
2018-09-17T12:17:31.030Z,101.25
2018-09-17T12:18:30.993Z,101.25
2018-09-17T12:19:30.983Z,101.25
2018-09-17T12:20:30.971Z,101.25
2018-09-17T12:21:30.961Z,101.25
2018-09-17T12:22:30.962Z,101.25
2018-09-17T12:23:30.942Z,101.25
2018-09-17T12:24:30.926Z,101.25
2018-09-17T12:25:30.917Z,101.25
2018-09-17T12:26:30.906Z,101.25
2018-09-17T12:27:30.907Z,101.25
2018-09-17T12:28:30.885Z,101.25
2018-09-17T12:29:30.871Z,101.25
2018-09-17T12:30:30.862Z,101.25
2018-09-17T12:31:30.851Z,101.25
2018-09-17T12:32:30.852Z,101.25
2018-09-17T12:33:30.868Z,101.25
2018-09-17T12:34:30.815Z,101.25
2018-09-17T12:35:30.805Z,101.25
2018-09-17T12:36:30.794Z,101.25
2018-09-17T12:37:30.797Z,101.25
2018-09-17T12:38:30.772Z,101.25
2018-09-17T12:39:30.764Z,101.25
2018-09-17T12:40:30.759Z,106.88
2018-09-17T12:41:30.739Z,106.88
2018-09-17T12:42:30.737Z,106.88
2018-09-17T12:43:30.737Z,106.88
2018-09-17T12:44:30.702Z,101.25
2018-09-17T12:45:30.696Z,101.25
2018-09-17T12:46:30.681Z,101.25
2018-09-17T12:47:30.698Z,101.25
2018-09-17T12:48:30.677Z,101.25
2018-09-17T12:49:30.648Z,101.25
2018-09-17T12:50:30.651Z,101.25
2018-09-17T12:51:30.623Z,101.25
2018-09-17T12:52:31.000Z,101.25
2018-09-17T12:53:30.606Z,101.25
2018-09-17T12:54:30.602Z,101.25
2018-09-17T12:55:30.584Z,101.25
2018-09-17T12:56:30.573Z,101.25
2018-09-17T12:57:30.576Z,101.25
2018-09-17T12:58:30.578Z,101.25
2018-09-17T12:59:30.537Z,95.62
2018-09-17T13:00:30.527Z,95.62
2018-09-17T13:01:30.512Z,95.62
2018-09-17T13:02:30.526Z,95.62
2018-09-17T13:03:30.494Z,90.00
2018-09-17T13:04:30.481Z,90.00
2018-09-17T13:05:30.472Z,90.00
2018-09-17T13:06:30.460Z,90.00
2018-09-17T13:07:30.458Z,90.00
2018-09-17T13:08:30.449Z,90.00
2018-09-17T13:09:30.441Z,90.00
2018-09-17T13:10:30.411Z,90.00
2018-09-17T13:11:30.401Z,90.00
2018-09-17T13:12:30.424Z,90.00
2018-09-17T13:13:30.380Z,90.00
2018-09-17T13:14:30.366Z,90.00
2018-09-17T13:15:30.357Z,90.00
2018-09-17T13:16:30.346Z,90.00
2018-09-17T13:17:30.344Z,95.62
2018-09-17T13:18:30.323Z,95.62
2018-09-17T13:19:30.314Z,95.62
2018-09-17T13:20:30.300Z,95.62
2018-09-17T13:21:30.289Z,95.62
2018-09-17T13:22:30.320Z,95.62
2018-09-17T13:23:30.267Z,95.62
2018-09-17T13:24:30.256Z,95.62
2018-09-17T13:25:30.243Z,90.00
2018-09-17T13:26:30.235Z,90.00
2018-09-17T13:27:30.234Z,84.38
2018-09-17T13:28:30.216Z,84.38
2018-09-17T13:29:30.203Z,84.38
2018-09-17T13:30:30.197Z,84.38
2018-09-17T13:31:30.181Z,84.38
2018-09-17T13:32:30.178Z,78.75
2018-09-17T13:33:30.156Z,78.75
2018-09-17T13:34:30.155Z,78.75
2018-09-17T13:35:30.137Z,78.75
2018-09-17T13:36:30.124Z,78.75
2018-09-17T13:37:30.119Z,78.75
2018-09-17T13:38:30.099Z,78.75
2018-09-17T13:39:30.093Z,78.75
2018-09-17T13:40:30.084Z,78.75
2018-09-17T13:41:30.070Z,78.75
2018-09-17T13:42:30.094Z,78.75
2018-09-17T13:43:30.076Z,78.75
2018-09-17T13:44:30.133Z,78.75
2018-09-17T13:45:30.023Z,78.75
2018-09-17T13:46:30.021Z,78.75
2018-09-17T13:47:30.045Z,73.12
2018-09-17T13:48:30.015Z,73.12
2018-09-17T13:49:29.995Z,73.12
2018-09-17T13:50:29.983Z,73.12
2018-09-17T13:51:29.954Z,73.12
2018-09-17T13:52:29.987Z,67.50
2018-09-17T13:53:30.078Z,73.12
2018-09-17T13:54:29.924Z,73.12
2018-09-17T13:55:29.920Z,73.12
2018-09-17T13:56:29.915Z,73.12
2018-09-17T13:57:29.964Z,73.12
2018-09-17T13:58:29.873Z,73.12
2018-09-17T13:59:29.864Z,73.12
2018-09-17T14:00:29.859Z,73.12
2018-09-17T14:01:29.839Z,73.12
2018-09-17T14:02:29.832Z,73.12
2018-09-17T14:03:29.852Z,73.12
2018-09-17T14:04:30.020Z,73.12
2018-09-17T14:05:29.820Z,73.12
2018-09-17T14:06:29.805Z,73.12
2018-09-17T14:07:29.794Z,73.12
2018-09-17T14:08:29.774Z,73.12
2018-09-17T14:09:29.749Z,73.12
2018-09-17T14:10:29.739Z,73.12
2018-09-17T14:11:29.731Z,73.12
2018-09-17T14:12:29.717Z,73.12
2018-09-17T14:13:29.717Z,67.50
2018-09-17T14:14:29.711Z,67.50
2018-09-17T14:15:29.683Z,67.50
2018-09-17T14:16:29.695Z,67.50
2018-09-17T14:17:29.669Z,67.50
2018-09-17T14:18:29.687Z,67.50
2018-09-17T14:19:29.647Z,67.50
2018-09-17T14:20:29.633Z,67.50
2018-09-17T14:21:29.650Z,67.50
2018-09-17T14:22:29.623Z,67.50
2018-09-17T14:23:29.605Z,67.50
2018-09-17T14:24:29.723Z,67.50
2018-09-17T14:25:29.667Z,67.50
2018-09-17T14:26:29.560Z,67.50
2018-09-17T14:27:29.552Z,67.50
2018-09-17T14:28:29.556Z,67.50
2018-09-17T14:29:29.528Z,67.50
2018-09-17T14:30:29.516Z,67.50
2018-09-17T14:31:29.504Z,67.50
2018-09-17T14:32:29.494Z,67.50
2018-09-17T14:33:29.493Z,67.50
2018-09-17T14:34:29.492Z,67.50
2018-09-17T14:35:29.570Z,67.50
2018-09-17T14:36:29.447Z,61.88
2018-09-17T14:37:29.471Z,61.88
2018-09-17T14:38:29.461Z,61.88
2018-09-17T14:39:29.417Z,61.88
2018-09-17T14:40:29.442Z,61.88
2018-09-17T14:41:29.422Z,61.88
2018-09-17T14:42:29.398Z,67.50
2018-09-17T14:43:29.436Z,67.50
2018-09-17T14:44:29.359Z,67.50
2018-09-17T14:45:29.347Z,67.50
2018-09-17T14:46:29.622Z,67.50
2018-09-17T14:47:29.363Z,67.50
2018-09-17T14:48:29.325Z,67.50
2018-09-17T14:49:29.303Z,67.50
2018-09-17T14:50:29.307Z,67.50
2018-09-17T14:51:29.285Z,67.50
2018-09-17T14:52:29.386Z,67.50
2018-09-17T14:53:29.330Z,67.50
2018-09-17T14:54:29.338Z,73.12
2018-09-17T14:55:29.233Z,73.12
2018-09-17T14:56:29.250Z,73.12
2018-09-17T15:01:59.092Z,67.50
2018-09-17T15:02:59.077Z,67.50
2018-09-17T15:03:59.050Z,67.50
2018-09-17T15:04:59.059Z,67.50
2018-09-17T15:05:59.020Z,67.50
2018-09-17T15:06:59.003Z,67.50
2018-09-17T15:07:59.065Z,67.50
2018-09-17T15:08:58.995Z,67.50
2018-09-17T15:09:59.032Z,67.50
2018-09-17T15:10:58.984Z,61.88
2018-09-17T15:11:58.956Z,67.50
2018-09-17T15:12:58.964Z,61.88
2018-09-17T15:13:58.984Z,67.50
2018-09-17T15:14:58.990Z,67.50
2018-09-17T15:15:58.921Z,67.50
2018-09-17T15:16:58.913Z,67.50
2018-09-17T15:17:58.881Z,67.50
2018-09-17T15:18:58.904Z,67.50
2018-09-17T15:19:58.860Z,67.50
2018-09-17T15:20:58.850Z,67.50
2018-09-17T15:21:58.862Z,67.50
2018-09-17T15:22:58.826Z,67.50
2018-09-17T15:23:58.851Z,67.50
2018-09-17T15:24:58.820Z,67.50
2018-09-17T15:25:58.798Z,67.50
2018-09-17T15:26:58.782Z,61.88
2018-09-17T15:27:58.802Z,61.88
2018-09-17T15:28:58.779Z,61.88
2018-09-17T15:29:58.751Z,61.88
2018-09-17T15:30:58.804Z,61.88
2018-09-17T15:31:58.766Z,61.88
2018-09-17T15:32:58.728Z,61.88
2018-09-17T15:33:58.791Z,61.88
2018-09-17T15:34:58.692Z,61.88
2018-09-17T15:35:58.679Z,61.88
2018-09-17T15:36:58.793Z,56.25
2018-09-17T15:37:58.693Z,56.25
2018-09-17T15:38:58.660Z,56.25
2018-09-17T15:39:58.656Z,56.25
2018-09-17T15:40:58.647Z,56.25
2018-09-17T15:41:58.613Z,56.25
2018-09-17T15:42:58.602Z,56.25
2018-09-17T15:43:58.630Z,56.25
2018-09-17T15:44:58.584Z,56.25
2018-09-17T15:45:58.593Z,56.25
2018-09-17T15:46:58.631Z,56.25
2018-09-17T15:47:58.548Z,56.25
2018-09-17T15:48:58.549Z,56.25
2018-09-17T15:49:58.628Z,56.25
2018-09-17T15:50:58.513Z,56.25
2018-09-17T15:51:58.653Z,56.25
2018-09-17T15:52:58.489Z,50.62
2018-09-17T15:53:58.489Z,50.62
2018-09-17T15:54:58.467Z,50.62
2018-09-17T15:55:58.609Z,50.62
2018-09-17T15:56:58.445Z,50.62
2018-09-17T15:57:58.558Z,50.62
2018-09-17T15:58:58.432Z,50.62
2018-09-17T15:59:58.410Z,50.62
2018-09-17T16:00:58.401Z,50.62
2018-09-17T16:01:58.393Z,50.62
2018-09-17T16:02:58.477Z,50.62
2018-09-17T16:03:58.377Z,50.62
2018-09-17T16:04:58.354Z,50.62
2018-09-17T16:05:58.350Z,45.00
2018-09-17T16:06:58.340Z,45.00
2018-09-17T16:07:58.326Z,45.00
2018-09-17T16:08:58.334Z,45.00
2018-09-17T16:09:58.300Z,45.00
2018-09-17T16:10:58.287Z,45.00
2018-09-17T16:11:58.281Z,45.00
2018-09-17T16:12:58.268Z,45.00
2018-09-17T16:13:58.324Z,45.00
2018-09-17T16:14:58.242Z,45.00
2018-09-17T16:15:58.232Z,45.00
2018-09-17T16:16:58.221Z,45.00
2018-09-17T16:17:58.213Z,39.38
2018-09-17T16:18:58.210Z,39.38
2018-09-17T16:19:58.199Z,39.38
2018-09-17T16:20:58.177Z,39.38
2018-09-17T16:21:58.174Z,39.38
2018-09-17T16:22:58.153Z,39.38
2018-09-17T16:23:58.179Z,39.38
2018-09-17T16:24:58.185Z,39.38
2018-09-17T16:25:58.120Z,33.75
2018-09-17T16:26:58.111Z,33.75
2018-09-17T16:27:58.100Z,33.75
2018-09-17T16:28:58.140Z,33.75
2018-09-17T16:29:58.076Z,33.75
2018-09-17T16:30:58.071Z,33.75
2018-09-17T16:31:58.052Z,33.75
2018-09-17T16:32:58.043Z,28.12
2018-09-17T16:33:58.050Z,28.12
2018-09-17T16:34:58.023Z,28.12
2018-09-17T16:35:58.042Z,28.12
2018-09-17T16:36:57.999Z,28.12
2018-09-17T16:37:57.996Z,22.50
2018-09-17T16:38:57.987Z,22.50
2018-09-17T16:39:57.963Z,22.50
2018-09-17T16:40:57.952Z,22.50
2018-09-17T16:41:57.940Z,22.50
2018-09-17T16:42:57.930Z,22.50
2018-09-17T16:43:57.929Z,22.50
2018-09-17T16:44:57.909Z,22.50
2018-09-17T16:45:57.898Z,16.88
2018-09-17T16:46:57.936Z,16.88